Time;durP1;ratioP1;P1;durP2;ratioP2;P2;SDS_P1;SDS_P2;PMS_P1;PMS_P2;Temp;Humidity;BMP_temperature;BMP_pressure;BME280_temperature;BME280_humidity;BME280_pressure;Samples;Min_cycle;Max_cycle;Signal;HPM_P1;HPM_P2
2022/03/10 00:01:44;;;;;;;40.47;27.02;;;;;;;3.19;60.52;102155.25;5076873;28;20032;-68
2022/03/10 00:04:10;;;;;;;41.15;28.10;;;;;;;3.14;61.99;102162.81;5076682;28;20108;-68
2022/03/10 00:06:35;;;;;;;40.88;27.27;;;;;;;2.99;61.71;102160.25;5076460;28;20056;-68
2022/03/10 00:09:02;;;;;;;44.15;29.30;;;;;;;2.92;62.21;102163.34;5076295;28;20051;-68
2022/03/10 00:11:27;;;;;;;42.85;28.33;;;;;;;2.85;62.70;102166.41;5076371;28;20024;-68
2022/03/10 00:13:53;;;;;;;42.05;28.17;;;;;;;2.82;63.59;102168.84;5076494;28;20470;-68
2022/03/10 00:16:18;;;;;;;42.38;27.75;;;;;;;2.76;62.77;102174.63;5076303;28;20486;-69
2022/03/10 00:18:43;;;;;;;41.47;28.83;;;;;;;2.77;63.51;102174.72;5076184;28;20032;-68
2022/03/10 00:21:09;;;;;;;44.10;29.75;;;;;;;2.66;63.42;102170.56;5075983;28;20021;-68
2022/03/10 00:23:35;;;;;;;43.42;29.00;;;;;;;2.57;65.12;102172.66;5076676;28;20025;-68
2022/03/10 00:26:00;;;;;;;46.22;29.70;;;;;;;2.49;64.58;102168.69;5076234;28;20073;-69
2022/03/10 00:28:26;;;;;;;44.50;29.15;;;;;;;2.43;64.79;102171.84;5076041;28;20028;-68
2022/03/10 00:30:51;;;;;;;44.95;29.52;;;;;;;2.58;65.42;102170.16;5075942;28;20020;-68
2022/03/10 00:33:17;;;;;;;42.38;28.70;;;;;;;2.51;65.09;102174.94;5075745;28;20060;-68
2022/03/10 00:35:42;;;;;;;42.20;28.23;;;;;;;2.43;64.93;102171.84;5075918;28;20028;-68
2022/03/10 00:38:07;;;;;;;43.92;29.48;;;;;;;2.34;65.68;102166.09;5075651;28;20024;-68
2022/03/10 00:40:32;;;;;;;43.72;28.73;;;;;;;2.14;65.50;102168.44;5075645;28;20028;-68
2022/03/10 00:42:58;;;;;;;43.17;29.25;;;;;;;2.14;67.08;102165.84;5076009;28;20540;-69
2022/03/10 00:45:25;;;;;;;44.15;29.08;;;;;;;2.05;66.89;102165.25;5075594;28;20502;-68
2022/03/10 00:47:51;;;;;;;44.45;30.33;;;;;;;1.97;67.61;102164.81;5075477;28;20387;-69
2022/03/10 00:50:16;;;;;;;44.85;29.83;;;;;;;1.95;66.96;102169.00;5074490;28;20028;-68
2022/03/10 00:52:44;;;;;;;44.28;29.33;;;;;;;2.06;67.50;102169.69;5075546;28;20029;-69
2022/03/10 00:55:11;;;;;;;45.35;29.73;;;;;;;2.00;67.60;102175.41;5071645;28;20386;-69
2022/03/10 00:57:37;;;;;;;44.75;29.80;;;;;;;1.96;67.60;102176.03;5075336;28;20024;-68
2022/03/10 01:00:05;;;;;;;42.80;29.52;;;;;;;1.82;68.04;102184.72;5075663;28;20123;-69
2022/03/10 01:02:31;;;;;;;45.08;29.55;;;;;;;1.73;68.66;102179.84;5075346;28;20048;-69
2022/03/10 01:04:56;;;;;;;45.85;29.67;;;;;;;1.77;68.72;102178.34;5074248;28;20059;-69
2022/03/10 01:07:22;;;;;;;45.55;29.42;;;;;;;1.74;68.55;102181.66;5075245;28;20028;-69
2022/03/10 01:09:47;;;;;;;44.17;30.42;;;;;;;1.69;69.22;102173.56;5075042;28;20041;-68
2022/03/10 01:12:12;;;;;;;45.72;30.27;;;;;;;1.76;70.15;102180.03;5075239;28;20021;-68
2022/03/10 01:14:38;;;;;;;45.35;30.17;;;;;;;1.79;69.75;102175.03;5075064;28;20118;-70
2022/03/10 01:17:04;;;;;;;44.60;30.52;;;;;;;1.72;70.16;102178.94;5073824;28;20068;-70
2022/03/10 01:19:29;;;;;;;44.15;30.42;;;;;;;1.63;70.86;102178.41;5075113;28;20497;-70
2022/03/10 01:21:55;;;;;;;44.92;31.25;;;;;;;1.62;70.72;102175.69;5074896;28;20042;-70
2022/03/10 01:24:21;;;;;;;48.50;30.25;;;;;;;1.64;71.04;102169.75;5075111;28;20024;-70
2022/03/10 01:26:46;;;;;;;46.33;31.05;;;;;;;1.73;71.50;102164.19;5075307;28;20367;-70
2022/03/10 01:29:13;;;;;;;43.75;29.60;;;;;;;1.72;71.14;102167.63;5074772;28;20112;-70
2022/03/10 01:31:39;;;;;;;43.58;30.73;;;;;;;1.74;72.01;102171.22;5071117;28;20433;-70
2022/03/10 01:34:04;;;;;;;44.92;30.33;;;;;;;1.74;71.96;102173.84;5074765;28;20054;-70
2022/03/10 01:36:29;;;;;;;45.67;30.90;;;;;;;1.82;73.23;102171.69;5074620;28;20039;-70
2022/03/10 01:38:55;;;;;;;45.88;31.38;;;;;;;1.78;72.34;102173.22;5074780;28;20039;-70
2022/03/10 01:41:20;;;;;;;44.47;30.67;;;;;;;1.70;73.47;102169.22;5074551;28;20024;-70
2022/03/10 01:43:58;;;;;;;45.03;29.92;;;;;;;1.70;72.71;102170.16;5074516;28;20055;-70
2022/03/10 01:46:24;;;;;;;45.22;30.10;;;;;;;1.75;73.06;102162.59;5074685;28;20028;-70
2022/03/10 01:48:49;;;;;;;44.40;30.00;;;;;;;1.80;73.35;102171.59;5074935;28;20035;-70
2022/03/10 01:51:15;;;;;;;43.78;30.50;;;;;;;1.76;73.44;102169.59;5074409;28;20476;-69
2022/03/10 01:53:42;;;;;;;44.65;29.88;;;;;;;1.80;73.77;102165.50;5074458;28;20116;-70
2022/03/10 01:56:08;;;;;;;45.28;30.52;;;;;;;1.85;74.12;102157.16;5074210;28;20028;-70
2022/03/10 01:58:34;;;;;;;45.15;30.63;;;;;;;1.99;72.72;102163.19;5074111;28;20119;-70
2022/03/10 02:01:00;;;;;;;47.30;30.65;;;;;;;2.00;73.08;102154.56;5074431;28;20063;-69
2022/03/10 02:03:25;;;;;;;44.03;29.08;;;;;;;2.08;72.21;102157.63;5074145;28;20028;-69
2022/03/10 02:05:51;;;;;;;46.38;29.83;;;;;;;2.10;71.77;102156.00;5073995;28;20020;-69
2022/03/10 02:11:01;;;;;;;46.70;30.48;;;;;;;2.14;72.26;102164.91;5074381;28;20044;-70
2022/03/10 02:13:27;;;;;;;45.40;29.63;;;;;;;2.04;71.92;102156.53;5073967;28;20024;-69
2022/03/10 02:18:36;;;;;;;45.88;30.52;;;;;;;2.05;72.29;102147.91;5074158;28;20043;-69
2022/03/10 02:21:01;;;;;;;45.45;30.02;;;;;;;2.08;72.10;102145.50;5074194;28;20016;-69
2022/03/10 02:23:27;;;;;;;43.97;30.67;;;;;;;2.06;72.64;102148.81;5074033;28;20021;-69
2022/03/10 02:25:52;;;;;;;45.83;30.00;;;;;;;2.02;72.54;102152.03;5073634;28;20032;-70
2022/03/10 02:28:18;;;;;;;44.50;29.23;;;;;;;2.04;72.52;102153.94;5073942;28;20033;-70
2022/03/10 02:30:43;;;;;;;45.00;30.40;;;;;;;2.01;72.57;102156.38;5073634;28;20486;-70
2022/03/10 02:33:09;;;;;;;46.50;30.58;;;;;;;1.91;72.94;102164.44;5069605;28;20081;-69
2022/03/10 02:35:34;;;;;;;45.10;31.00;;;;;;;1.85;73.44;102157.16;5073590;28;20052;-70
2022/03/10 02:38:00;;;;;;;44.28;30.25;;;;;;;1.80;74.06;102161.16;5073717;28;20056;-69
2022/03/10 02:40:26;;;;;;;45.63;30.13;;;;;;;1.80;74.37;102155.06;5073407;28;20541;-69
2022/03/10 02:42:52;;;;;;;45.67;31.10;;;;;;;1.83;74.33;102157.84;5073348;28;20032;-69
2022/03/10 02:45:17;;;;;;;45.58;31.02;;;;;;;1.80;74.46;102157.66;5073385;28;20083;-69
2022/03/10 02:47:42;;;;;;;44.65;30.52;;;;;;;1.79;74.27;102155.84;5073489;28;20042;-69
2022/03/10 02:50:09;;;;;;;44.97;29.45;;;;;;;1.60;75.48;102161.66;5073468;28;20081;-69
2022/03/10 02:52:38;;;;;;;44.35;31.02;;;;;;;1.49;76.36;102159.28;5073168;28;20024;-69
2022/03/10 02:55:06;;;;;;;46.00;29.40;;;;;;;1.60;76.63;102161.66;5073293;28;20020;-69
2022/03/10 02:57:31;;;;;;;45.65;30.08;;;;;;;1.59;76.50;102150.34;5072961;28;20075;-68
2022/03/10 02:59:58;;;;;;;47.40;31.45;;;;;;;1.63;76.77;102154.94;5073027;28;20059;-69
2022/03/10 03:02:24;;;;;;;46.20;30.95;;;;;;;1.60;76.88;102152.13;5073171;28;20025;-69
2022/03/10 03:04:49;;;;;;;45.78;30.13;;;;;;;1.56;76.64;102153.66;5072922;28;20159;-69
2022/03/10 03:07:14;;;;;;;44.85;30.25;;;;;;;1.59;76.48;102152.94;5072930;28;20475;-69
2022/03/10 03:09:40;;;;;;;44.67;31.20;;;;;;;1.61;77.03;102159.13;5072974;28;20041;-69
2022/03/10 03:12:05;;;;;;;45.70;31.10;;;;;;;1.56;77.24;102150.16;5072788;28;20044;-69
2022/03/10 03:14:31;;;;;;;46.55;31.23;;;;;;;1.59;77.23;102160.75;5072767;28;20028;-69
2022/03/10 03:16:56;;;;;;;44.30;30.58;;;;;;;1.55;77.50;102150.94;5072859;28;20040;-70
2022/03/10 03:19:22;;;;;;;45.50;30.67;;;;;;;1.56;77.54;102161.47;5072827;28;20039;-70
2022/03/10 03:21:48;;;;;;;46.17;30.48;;;;;;;1.58;77.47;102166.78;5072724;28;20516;-70
2022/03/10 03:24:13;;;;;;;46.65;30.38;;;;;;;1.52;77.62;102159.47;5072954;28;20024;-70
2022/03/10 03:26:39;;;;;;;46.22;30.50;;;;;;;1.50;78.19;102170.59;5067894;28;20032;-69
2022/03/10 03:29:04;;;;;;;46.03;30.75;;;;;;;1.52;78.06;102171.59;5072666;28;20028;-70
2022/03/10 03:31:30;;;;;;;48.85;31.17;;;;;;;1.52;78.02;102169.88;5073121;28;20024;-70
2022/03/10 03:33:56;;;;;;;48.17;31.40;;;;;;;1.54;77.97;102163.09;5072585;28;20028;-70
2022/03/10 03:36:22;;;;;;;47.17;31.23;;;;;;;1.48;78.28;102177.44;5072647;28;20107;-70
2022/03/10 03:38:47;;;;;;;46.72;31.67;;;;;;;1.42;78.58;102177.06;5072798;28;20024;-70
2022/03/10 03:41:12;;;;;;;46.17;30.90;;;;;;;1.43;79.23;102171.00;5072601;28;20486;-70
2022/03/10 03:43:38;;;;;;;47.58;31.85;;;;;;;1.37;78.68;102169.84;5072494;28;20028;-70
2022/03/10 03:46:03;;;;;;;45.08;30.58;;;;;;;1.39;78.68;102172.53;5072457;28;20487;-71
2022/03/10 03:48:28;;;;;;;47.40;32.13;;;;;;;1.34;79.48;102174.88;5072354;28;20032;-70
2022/03/10 03:50:54;;;;;;;46.50;30.65;;;;;;;1.30;79.56;102174.59;5072857;28;20028;-70
2022/03/10 03:53:19;;;;;;;45.42;30.83;;;;;;;1.16;79.13;102181.50;5072421;28;20016;-70
2022/03/10 03:55:45;;;;;;;47.22;31.02;;;;;;;1.08;80.23;102190.53;5072346;28;20472;-70
2022/03/10 03:58:11;;;;;;;45.65;30.83;;;;;;;0.88;80.25;102186.66;5072491;28;20028;-70
2022/03/10 04:00:37;;;;;;;48.40;32.20;;;;;;;0.85;81.22;102193.44;5072296;28;20387;-68
2022/03/10 04:03:07;;;;;;;47.95;31.23;;;;;;;0.87;81.68;102196.16;5072310;28;20032;-68
2022/03/10 04:05:32;;;;;;;46.67;30.88;;;;;;;0.82;82.07;102198.44;5072572;28;20029;-68
2022/03/10 04:07:57;;;;;;;47.58;32.03;;;;;;;0.82;82.51;102194.97;5072058;28;20035;-68
2022/03/10 04:10:23;;;;;;;47.13;32.17;;;;;;;0.75;82.42;102192.75;5072196;28;20067;-68
2022/03/10 04:12:48;;;;;;;48.75;33.38;;;;;;;0.66;83.09;102203.47;5072400;28;20033;-68
2022/03/10 04:15:13;;;;;;;49.58;32.67;;;;;;;0.52;83.35;102205.13;5072383;28;20047;-68
2022/03/10 04:17:39;;;;;;;46.35;31.83;;;;;;;0.50;84.59;102202.44;5072488;28;20442;-68
2022/03/10 04:20:08;;;;;;;47.40;32.08;;;;;;;0.55;85.55;102201.84;5072281;28;20028;-69
2022/03/10 04:22:33;;;;;;;47.10;32.05;;;;;;;0.55;85.12;102202.72;5072439;28;20025;-69
2022/03/10 04:24:58;;;;;;;49.53;33.45;;;;;;;0.50;84.89;102204.13;5072134;28;20033;-69
2022/03/10 04:27:24;;;;;;;47.80;32.10;;;;;;;0.42;84.74;102198.41;5072219;28;20028;-69
2022/03/10 04:29:49;;;;;;;48.38;32.90;;;;;;;0.35;85.19;102201.41;5071937;28;20054;-69
2022/03/10 04:32:15;;;;;;;46.58;32.00;;;;;;;0.30;86.40;102203.69;5072523;28;20455;-69
2022/03/10 04:34:41;;;;;;;48.20;33.03;;;;;;;0.21;87.34;102197.88;5068025;28;20047;-69
2022/03/10 04:37:06;;;;;;;46.95;32.30;;;;;;;0.07;87.49;102198.63;5071961;28;20028;-68
2022/03/10 04:39:31;;;;;;;49.47;32.90;;;;;;;0.03;88.35;102194.91;5075409;28;20084;-69
2022/03/10 04:41:56;;;;;;;47.58;32.22;;;;;;;0.08;89.05;102200.44;5075692;28;20021;-70
2022/03/10 04:44:22;;;;;;;49.00;33.88;;;;;;;-0.01;89.42;102193.78;5075520;28;20487;-70
2022/03/10 04:46:47;;;;;;;48.35;32.88;;;;;;;-0.07;89.54;102206.38;5076088;28;20032;-69
2022/03/10 04:49:13;;;;;;;46.15;32.13;;;;;;;-0.08;89.55;102204.56;5075920;28;20426;-70
2022/03/10 04:51:38;;;;;;;47.55;32.22;;;;;;;-0.10;90.23;102195.78;5075773;28;20475;-69
2022/03/10 04:54:03;;;;;;;47.45;32.95;;;;;;;-0.24;90.66;102199.09;5075751;28;20426;-70
2022/03/10 04:56:29;;;;;;;47.35;32.17;;;;;;;-0.22;91.32;102202.69;5075325;28;20037;-70
2022/03/10 04:58:54;;;;;;;49.25;33.15;;;;;;;-0.26;91.29;102201.59;5075354;28;20141;-70
2022/03/10 05:01:19;;;;;;;48.90;32.90;;;;;;;-0.31;92.40;102197.75;5074522;28;20093;-70
2022/03/10 05:03:45;;;;;;;48.20;32.78;;;;;;;-0.34;92.83;102196.66;5075242;28;20032;-70
2022/03/10 05:06:10;;;;;;;49.28;32.78;;;;;;;-0.39;92.92;102192.03;5075518;28;20024;-70
2022/03/10 05:08:35;;;;;;;49.38;33.13;;;;;;;-0.40;94.01;102200.63;5074918;28;20094;-70
2022/03/10 05:11:01;;;;;;;49.38;33.08;;;;;;;-0.43;94.93;102203.00;5075169;28;20037;-69
2022/03/10 05:13:26;;;;;;;47.92;32.70;;;;;;;-0.44;95.59;102206.38;5075274;28;20103;-69
2022/03/10 05:15:51;;;;;;;47.25;32.38;;;;;;;-0.40;96.63;102205.81;5074926;28;20036;-69
2022/03/10 05:18:17;;;;;;;49.90;33.20;;;;;;;-0.40;96.12;102211.00;5075023;28;20028;-69
2022/03/10 05:20:42;;;;;;;48.72;32.13;;;;;;;-0.38;95.77;102218.91;5075341;28;20055;-69
2022/03/10 05:23:08;;;;;;;48.42;32.42;;;;;;;-0.48;95.19;102219.97;5075209;28;20025;-69
2022/03/10 05:25:36;;;;;;;48.92;32.53;;;;;;;-0.49;95.67;102212.97;5074895;28;20420;-70
2022/03/10 05:28:01;;;;;;;47.42;31.85;;;;;;;-0.49;95.83;102212.97;5074947;28;20468;-69
2022/03/10 05:30:27;;;;;;;48.50;33.00;;;;;;;-0.54;95.48;102211.72;5074709;28;20036;-69
2022/03/10 05:32:52;;;;;;;47.50;31.45;;;;;;;-0.58;96.11;102209.72;5074746;28;20487;-69
2022/03/10 05:35:18;;;;;;;48.08;31.15;;;;;;;-0.64;96.32;102217.97;5074921;28;20056;-69
2022/03/10 05:37:45;;;;;;;48.13;32.55;;;;;;;-0.66;96.77;102209.16;5074635;28;20058;-69
2022/03/10 05:40:14;;;;;;;50.03;33.50;;;;;;;-0.63;97.46;102214.56;5070544;28;20467;-68
2022/03/10 05:42:41;;;;;;;49.03;33.00;;;;;;;-0.65;97.88;102213.56;5074644;28;20032;-70
2022/03/10 05:45:08;;;;;;;48.60;33.00;;;;;;;-0.72;97.63;102219.13;5074401;28;20025;-69
2022/03/10 05:47:34;;;;;;;45.92;31.25;;;;;;;-0.77;97.86;102216.19;5074368;28;20035;-68
2022/03/10 05:50:00;;;;;;;48.03;32.85;;;;;;;-0.75;98.26;102213.69;5074099;28;20025;-68
2022/03/10 05:52:25;;;;;;;45.42;30.98;;;;;;;-0.74;98.45;102216.41;5074399;28;20027;-68
2022/03/10 05:54:50;;;;;;;49.88;31.45;;;;;;;-0.77;98.53;102215.25;5074591;28;20517;-68
2022/03/10 05:57:16;;;;;;;49.10;31.92;;;;;;;-0.84;98.42;102208.75;5074410;28;20028;-69
2022/03/10 05:59:41;;;;;;;48.65;32.00;;;;;;;-0.83;98.25;102220.03;5074205;28;20024;-69
2022/03/10 06:02:07;;;;;;;48.58;30.65;;;;;;;-0.79;98.55;102211.66;5074278;28;20025;-68
2022/03/10 06:04:32;;;;;;;47.97;31.40;;;;;;;-0.74;98.53;102211.22;5074142;28;20021;-69
2022/03/10 06:06:57;;;;;;;48.63;31.52;;;;;;;-0.66;98.57;102210.88;5074048;28;20024;-68
2022/03/10 06:09:22;;;;;;;49.67;31.65;;;;;;;-0.68;98.12;102209.84;5073865;28;20039;-68
2022/03/10 06:11:48;;;;;;;45.42;31.25;;;;;;;-0.69;98.04;102213.25;5072807;28;20505;-68
2022/03/10 06:14:13;;;;;;;49.60;31.15;;;;;;;-0.71;97.98;102207.94;5069057;28;20194;-70
2022/03/10 06:16:39;;;;;;;46.55;31.10;;;;;;;-0.65;98.17;102215.28;5064962;28;20025;-70
2022/03/10 06:19:04;;;;;;;48.00;30.63;;;;;;;-0.65;97.55;102210.09;5064359;28;20526;-71
2022/03/10 06:21:30;;;;;;;48.70;32.53;;;;;;;-0.65;97.58;102210.09;5064177;28;20027;-71
2022/03/10 06:23:56;;;;;;;48.30;31.92;;;;;;;-0.56;96.90;102211.63;5065941;28;20534;-68
2022/03/10 06:26:21;;;;;;;48.38;31.20;;;;;;;-0.44;96.20;102211.56;5064536;28;20055;-71
2022/03/10 06:28:47;;;;;;;50.67;30.75;;;;;;;-0.31;95.61;102215.94;5064338;28;20028;-72
2022/03/10 06:31:12;;;;;;;48.95;29.55;;;;;;;-0.28;94.90;102221.38;5065929;28;20044;-72
2022/03/10 06:33:37;;;;;;;47.88;31.27;;;;;;;-0.21;94.12;102222.72;5064839;28;20070;-71
2022/03/10 06:36:04;;;;;;;48.30;30.63;;;;;;;-0.09;94.12;102226.16;5065299;28;20024;-69
2022/03/10 06:38:30;;;;;;;47.58;29.95;;;;;;;-0.02;93.17;102215.38;5063423;28;20074;-71
2022/03/10 06:40:55;;;;;;;48.55;29.95;;;;;;;0.08;91.99;102213.44;5065221;28;20033;-70
2022/03/10 06:43:21;;;;;;;51.45;31.05;;;;;;;0.13;91.74;102212.97;5065946;28;20032;-69
2022/03/10 06:45:46;;;;;;;48.53;31.27;;;;;;;0.14;91.98;102213.84;5063776;28;20127;-70
2022/03/10 06:48:11;;;;;;;49.42;31.02;;;;;;;0.22;91.22;102217.88;5063431;28;20036;-70
2022/03/10 06:50:38;;;;;;;50.08;30.88;;;;;;;0.25;91.05;102222.38;5064495;28;20089;-72
2022/03/10 06:53:04;;;;;;;45.92;30.33;;;;;;;0.30;91.26;102231.41;5063518;28;20489;-70
2022/03/10 06:55:29;;;;;;;46.95;30.17;;;;;;;0.29;91.79;102230.50;5064658;28;20111;-70
2022/03/10 06:57:55;;;;;;;49.08;31.42;;;;;;;0.32;91.97;102229.78;5065348;28;20039;-73
2022/03/10 07:00:21;;;;;;;48.63;30.42;;;;;;;0.38;91.62;102234.53;5063994;28;20372;-70
2022/03/10 07:02:48;;;;;;;44.22;29.25;;;;;;;0.46;92.05;102231.63;5063500;28;20064;-70
2022/03/10 07:05:14;;;;;;;47.33;30.73;;;;;;;0.53;91.69;102235.56;5064702;28;20546;-75
2022/03/10 07:07:39;;;;;;;47.88;31.08;;;;;;;0.66;91.24;102232.09;5064076;28;20043;-69
2022/03/10 07:10:05;;;;;;;49.53;30.88;;;;;;;0.79;90.77;102239.91;5062623;28;20045;-69
2022/03/10 07:12:38;;;;;;;48.58;30.23;;;;;;;0.94;90.20;102240.00;5065167;28;20060;-69
2022/03/10 07:15:05;;;;;;;49.35;30.95;;;;;;;1.09;88.14;102237.50;5062506;28;20450;-69
2022/03/10 07:17:30;;;;;;;49.15;30.27;;;;;;;1.18;88.10;102240.72;5064333;28;20100;-68
2022/03/10 07:19:56;;;;;;;47.70;30.33;;;;;;;1.26;87.49;102243.81;5063235;28;20463;-69
2022/03/10 07:22:21;;;;;;;45.75;30.98;;;;;;;1.35;88.27;102239.19;5064819;28;20028;-69
2022/03/10 07:24:47;;;;;;;46.80;30.83;;;;;;;1.52;86.74;102240.28;5065397;28;20345;-68
2022/03/10 07:27:12;;;;;;;48.35;30.48;;;;;;;1.73;85.91;102240.75;5063931;28;20028;-68
2022/03/10 07:29:38;;;;;;;46.80;29.48;;;;;;;1.94;84.11;102240.25;5063171;28;20047;-68
2022/03/10 07:32:03;;;;;;;45.22;30.20;;;;;;;2.15;82.41;102245.00;5062645;28;20024;-69
2022/03/10 07:34:29;;;;;;;45.47;28.92;;;;;;;2.31;80.85;102247.72;5064288;28;20170;-68
2022/03/10 07:36:54;;;;;;;45.50;30.13;;;;;;;2.47;80.75;102240.81;5064616;28;20056;-69
2022/03/10 07:39:20;;;;;;;44.40;29.38;;;;;;;2.66;78.58;102242.81;5062258;28;20116;-68
2022/03/10 07:41:45;;;;;;;45.90;29.55;;;;;;;2.92;76.33;102244.31;5069680;28;20028;-69
2022/03/10 07:44:10;;;;;;;44.03;28.63;;;;;;;3.08;75.20;102236.53;5072589;28;20360;-68
2022/03/10 07:46:36;;;;;;;44.45;28.67;;;;;;;3.27;75.13;102241.09;5072626;28;20025;-68
2022/03/10 07:49:02;;;;;;;45.80;27.80;;;;;;;3.43;71.37;102242.88;5072744;28;20393;-69
2022/03/10 07:51:27;;;;;;;47.22;28.73;;;;;;;3.54;69.56;102235.63;5072236;28;20119;-70
2022/03/10 07:53:52;;;;;;;45.30;29.08;;;;;;;3.59;68.93;102238.50;5072636;28;20379;-70
2022/03/10 07:56:18;;;;;;;43.38;27.73;;;;;;;3.65;68.17;102234.47;5072304;28;20021;-70
2022/03/10 07:58:43;;;;;;;43.60;27.80;;;;;;;3.75;68.04;102238.50;5072419;28;20024;-69
2022/03/10 08:01:09;;;;;;;43.45;29.08;;;;;;;3.87;65.65;102235.66;5072652;28;20032;-69
2022/03/10 08:03:36;;;;;;;44.13;27.73;;;;;;;4.05;65.12;102238.38;5072494;28;20028;-68
2022/03/10 08:06:02;;;;;;;43.08;28.35;;;;;;;4.25;65.44;102234.19;5072442;28;20024;-70
2022/03/10 08:08:27;;;;;;;42.38;27.55;;;;;;;4.44;63.07;102228.19;5072448;28;20526;-69
2022/03/10 08:10:53;;;;;;;43.10;28.13;;;;;;;4.66;62.08;102237.13;5072135;28;20055;-69
2022/03/10 08:13:19;;;;;;;43.83;27.88;;;;;;;4.88;63.67;102237.38;5073876;28;20021;-69
2022/03/10 08:15:44;;;;;;;42.20;26.75;;;;;;;5.09;62.92;102238.38;5076620;28;20035;-69
2022/03/10 08:18:10;;;;;;;43.35;28.67;;;;;;;5.30;62.95;102243.75;5076372;28;20024;-68
2022/03/10 08:20:39;;;;;;;41.70;27.52;;;;;;;5.48;62.13;102241.13;5075981;28;20425;-69
2022/03/10 08:23:04;;;;;;;43.45;28.00;;;;;;;5.62;61.50;102247.00;5076203;28;20021;-69
2022/03/10 08:25:29;;;;;;;42.13;27.10;;;;;;;5.79;60.26;102240.81;5071849;28;20029;-69
2022/03/10 08:27:56;;;;;;;41.97;27.67;;;;;;;5.86;58.44;102237.66;5076106;28;20074;-70
2022/03/10 08:30:22;;;;;;;41.55;27.05;;;;;;;6.05;57.62;102239.41;5072162;28;20020;-69
2022/03/10 08:32:47;;;;;;;40.30;26.83;;;;;;;6.27;56.40;102235.13;5075852;28;20512;-69
2022/03/10 08:35:15;;;;;;;40.97;25.58;;;;;;;6.48;56.89;102240.44;5076250;28;20031;-70
2022/03/10 08:37:40;;;;;;;41.95;26.30;;;;;;;6.73;55.86;102236.25;5075829;28;20471;-69
2022/03/10 08:40:06;;;;;;;41.40;25.92;;;;;;;6.86;55.08;102237.63;5075641;28;20058;-70
2022/03/10 08:42:32;;;;;;;40.72;26.25;;;;;;;6.95;55.92;102224.88;5076049;28;20025;-70
2022/03/10 08:44:57;;;;;;;41.60;26.73;;;;;;;6.93;54.59;102224.81;5074548;28;20506;-70
2022/03/10 08:47:22;;;;;;;41.67;27.13;;;;;;;7.04;53.53;102227.00;5075666;28;20021;-69
2022/03/10 08:49:48;;;;;;;42.78;27.27;;;;;;;7.28;53.73;102229.69;5075974;28;20016;-69
2022/03/10 08:52:13;;;;;;;39.08;25.10;;;;;;;7.49;53.60;102227.03;5075398;28;20028;-69
2022/03/10 08:54:39;;;;;;;39.63;25.55;;;;;;;7.70;51.50;102223.44;5075570;28;20042;-70
2022/03/10 08:57:05;;;;;;;39.58;25.27;;;;;;;7.85;51.19;102226.66;5075522;28;20113;-70
2022/03/10 08:59:30;;;;;;;40.72;25.80;;;;;;;8.00;50.65;102224.56;5075442;28;20029;-69
2022/03/10 09:01:55;;;;;;;41.53;27.23;;;;;;;8.19;49.24;102227.88;5075337;28;20351;-70
2022/03/10 09:04:21;;;;;;;40.08;26.08;;;;;;;8.37;49.37;102231.19;5075781;28;20016;-71
2022/03/10 09:06:46;;;;;;;40.25;25.98;;;;;;;8.59;49.25;102217.88;5073241;28;20029;-71
2022/03/10 09:09:12;;;;;;;41.45;26.25;;;;;;;8.80;47.80;102223.88;5075012;28;20399;-68
2022/03/10 09:11:38;;;;;;;40.20;25.52;;;;;;;9.10;47.70;102217.84;5067120;28;20020;-70
2022/03/10 09:14:03;;;;;;;39.72;26.15;;;;;;;9.50;45.61;102205.88;5064098;28;20016;-69
2022/03/10 09:16:29;;;;;;;40.00;24.73;;;;;;;9.84;45.25;102213.91;5066357;28;20042;-69
2022/03/10 09:18:54;;;;;;;40.95;25.00;;;;;;;10.38;45.26;102202.22;5065400;28;20111;-68
2022/03/10 09:21:20;;;;;;;40.10;26.58;;;;;;;10.54;43.32;102204.44;5065715;28;20028;-70
2022/03/10 09:23:46;;;;;;;39.38;25.77;;;;;;;10.52;42.60;102205.25;5066440;28;20502;-68
2022/03/10 09:26:11;;;;;;;40.47;26.63;;;;;;;10.49;43.63;102199.88;5065339;28;20525;-68
2022/03/10 09:28:37;;;;;;;40.40;25.75;;;;;;;10.67;43.88;102204.75;5065725;28;20028;-68
2022/03/10 09:31:03;;;;;;;38.60;24.15;;;;;;;11.13;42.56;102204.13;5067158;28;20032;-69
2022/03/10 09:33:28;;;;;;;40.80;25.73;;;;;;;11.52;41.85;102195.31;5066080;28;20493;-68
2022/03/10 09:35:54;;;;;;;38.55;25.35;;;;;;;11.85;41.64;102188.94;5066981;28;20040;-70
2022/03/10 09:38:19;;;;;;;39.45;24.55;;;;;;;12.09;40.67;102192.97;5065127;28;20037;-70
2022/03/10 09:40:53;;;;;;;38.95;25.13;;;;;;;12.00;39.97;102179.56;5065800;28;20074;-69
2022/03/10 09:43:22;;;;;;;38.05;24.35;;;;;;;12.47;39.77;102183.94;5065925;28;20040;-68
2022/03/10 09:45:49;;;;;;;39.25;25.27;;;;;;;12.65;38.88;102191.31;5066098;28;20166;-68
2022/03/10 09:48:15;;;;;;;39.72;24.48;;;;;;;13.21;38.21;102179.84;5065199;28;20027;-69
2022/03/10 09:50:40;;;;;;;38.70;24.88;;;;;;;13.60;36.65;102178.59;5065240;28;20044;-69
2022/03/10 09:53:06;;;;;;;39.72;25.05;;;;;;;14.23;36.78;102178.47;5066024;28;20375;-68
2022/03/10 09:55:31;;;;;;;38.28;24.92;;;;;;;14.55;35.53;102177.91;5066533;28;20020;-69
2022/03/10 09:57:58;;;;;;;37.47;24.50;;;;;;;14.74;34.70;102174.53;5065254;28;20028;-69
2022/03/10 10:00:24;;;;;;;36.08;23.77;;;;;;;14.94;34.64;102177.38;5065494;28;20514;-69
2022/03/10 10:02:51;;;;;;;38.33;24.83;;;;;;;15.20;34.44;102167.75;5065896;28;20040;-68
2022/03/10 10:05:26;;;;;;;39.78;25.95;;;;;;;15.53;34.07;102164.38;5066023;28;20157;-68
2022/03/10 10:08:13;;;;;;;37.17;24.63;;;;;;;16.17;33.55;102170.88;5064992;28;20045;-70
2022/03/10 10:10:43;;;;;;;39.03;24.70;;;;;;;16.67;32.88;102166.44;5065996;28;20502;-70
2022/03/10 10:13:09;;;;;;;37.80;24.05;;;;;;;17.29;31.53;102159.28;5065979;28;21217;-70
2022/03/10 10:15:35;;;;;;;36.47;23.90;;;;;;;17.67;31.48;102160.94;5064484;28;20060;-69
2022/03/10 10:18:01;;;;;;;37.17;24.20;;;;;;;17.82;30.78;102154.59;5064498;28;20518;-70
2022/03/10 10:20:44;;;;;;;35.85;23.30;;;;;;;18.28;30.64;102153.50;5065779;28;20657;-70
2022/03/10 10:23:26;;;;;;;37.13;24.42;;;;;;;18.51;30.51;102157.75;5064782;28;20021;-70
2022/03/10 10:26:12;;;;;;;36.63;24.10;;;;;;;19.33;29.12;102161.47;5065600;28;20147;-70
2022/03/10 10:28:45;;;;;;;36.28;23.20;;;;;;;19.56;28.61;102149.59;5064506;28;20075;-71
2022/03/10 10:31:13;;;;;;;37.35;24.02;;;;;;;19.61;28.00;102152.22;5063053;28;20117;-70
2022/03/10 10:33:41;;;;;;;35.55;23.40;;;;;;;19.73;27.49;102152.06;5064379;28;20021;-70
2022/03/10 10:36:24;;;;;;;36.22;23.75;;;;;;;19.93;27.08;102150.94;5064306;28;20044;-69
2022/03/10 10:38:51;;;;;;;37.42;23.70;;;;;;;19.69;27.12;102153.00;5063220;28;20036;-71
2022/03/10 10:41:30;;;;;;;35.47;22.73;;;;;;;19.67;27.53;102157.50;5064920;28;20506;-72
2022/03/10 10:44:03;;;;;;;36.22;23.48;;;;;;;19.71;27.40;102148.50;5065238;28;20487;-70
2022/03/10 10:46:39;;;;;;;36.38;23.75;;;;;;;19.93;27.42;102149.13;5065475;28;20032;-71
2022/03/10 10:49:06;;;;;;;34.28;22.73;;;;;;;20.23;26.93;102144.22;5064411;28;20034;-71
2022/03/10 10:51:36;;;;;;;33.50;22.15;;;;;;;20.61;26.69;102142.69;5065135;28;20096;-72
2022/03/10 10:54:05;;;;;;;35.90;23.45;;;;;;;20.73;27.01;102138.94;5064564;28;20502;-71
2022/03/10 10:56:31;;;;;;;34.45;21.65;;;;;;;21.60;25.49;102135.50;5063845;28;20035;-70
2022/03/10 10:58:57;;;;;;;34.42;20.98;;;;;;;22.18;24.88;102136.00;5063468;28;20488;-69
2022/03/10 11:01:36;;;;;;;33.60;21.17;;;;;;;22.86;24.74;102136.09;5064697;28;20062;-70
2022/03/10 11:04:04;;;;;;;33.20;20.42;;;;;;;23.68;23.12;102123.91;5065227;28;20032;-70
2022/03/10 11:06:31;;;;;;;33.13;20.80;;;;;;;23.38;22.89;102128.41;5064574;28;20599;-70
2022/03/10 11:08:56;;;;;;;32.83;20.20;;;;;;;22.85;23.15;102124.44;5063116;28;20127;-70
2022/03/10 11:11:23;;;;;;;33.00;19.75;;;;;;;23.41;23.26;102125.63;5064943;28;20591;-69
2022/03/10 11:13:48;;;;;;;31.92;19.83;;;;;;;23.12;23.59;102120.13;5064912;28;20039;-70
2022/03/10 11:16:18;;;;;;;31.73;19.45;;;;;;;23.13;23.90;102121.03;5064401;28;20025;-69